Time;durP1;ratioP1;P1;durP2;ratioP2;P2;SDS_P1;SDS_P2;PMS_P1;PMS_P2;Temp;Humidity;BMP_temperature;BMP_pressure;BME280_temperature;BME280_humidity;BME280_pressure;Samples;Min_cycle;Max_cycle;Signal;HPM_P1;HPM_P2
2023/03/09 00:00:57;;;;;;;7.40;1.77;;;9.60;99.90;;;;;;5162706;27;20030;-70
2023/03/09 00:03:23;;;;;;;3.60;1.75;;;9.60;99.90;;;;;;5147208;27;20094;-69
2023/03/09 00:05:54;;;;;;;4.55;1.38;;;9.60;99.90;;;;;;5162957;27;20110;-71
2023/03/09 00:08:20;;;;;;;7.03;1.67;;;9.60;99.90;;;;;;5157721;27;20066;-69
2023/03/09 00:10:48;;;;;;;3.08;1.17;;;9.60;99.90;;;;;;5157483;27;20512;-70
2023/03/09 00:13:13;;;;;;;4.03;1.30;;;9.60;99.90;;;;;;5147944;27;20113;-70
2023/03/09 00:15:39;;;;;;;6.72;1.80;;;9.60;99.90;;;;;;5155186;27;20442;-70
2023/03/09 00:18:04;;;;;;;3.90;1.27;;;9.60;99.90;;;;;;5144743;27;20465;-70
2023/03/09 00:20:30;;;;;;;2.90;1.20;;;9.70;99.90;;;;;;5142297;27;20028;-69
2023/03/09 00:22:55;;;;;;;3.65;1.55;;;9.70;99.90;;;;;;5146453;27;20051;-70
2023/03/09 00:25:22;;;;;;;3.80;1.38;;;9.70;99.90;;;;;;5144606;27;20029;-69
2023/03/09 00:27:52;;;;;;;4.10;1.15;;;9.70;99.90;;;;;;5155350;27;20419;-69
2023/03/09 00:30:18;;;;;;;;;;;9.90;99.90;;;;;;5153830;27;20460;-70
2023/03/09 00:32:46;;;;;;;2.47;0.70;;;10.00;99.90;;;;;;5154986;27;19934;-69
2023/03/09 00:35:12;;;;;;;3.03;0.80;;;10.10;99.90;;;;;;5154592;27;20075;-70
2023/03/09 00:37:38;;;;;;;4.43;0.90;;;10.00;99.90;;;;;;5159300;27;20026;-70
2023/03/09 00:40:09;;;;;;;2.90;0.90;;;10.00;99.90;;;;;;5175699;27;20345;-69
2023/03/09 00:42:36;;;;;;;2.00;0.90;;;10.00;99.90;;;;;;5175586;27;20078;-69
2023/03/09 00:45:04;;;;;;;2.83;0.95;;;9.90;99.90;;;;;;5175239;27;20053;-69
2023/03/09 00:47:29;;;;;;;2.03;1.10;;;9.80;99.90;;;;;;5175282;27;20420;-69
2023/03/09 00:49:55;;;;;;;3.55;0.90;;;9.80;99.90;;;;;;5175528;27;20054;-69
2023/03/09 00:52:20;;;;;;;4.45;1.35;;;9.60;99.90;;;;;;5175446;27;20380;-69
2023/03/09 00:54:46;;;;;;;3.28;1.00;;;9.60;99.90;;;;;;5138166;27;20095;-70
2023/03/09 00:57:12;;;;;;;4.35;0.93;;;9.60;99.90;;;;;;5134388;27;20517;-70
2023/03/09 00:59:37;;;;;;;2.05;0.70;;;9.50;99.90;;;;;;5133223;27;20027;-71
2023/03/09 01:02:03;;;;;;;1.90;0.63;;;9.50;99.90;;;;;;5134455;27;20031;-70
2023/03/09 01:04:28;;;;;;;3.67;0.50;;;9.40;99.90;;;;;;5132963;27;20075;-70
2023/03/09 01:06:55;;;;;;;1.13;0.38;;;9.40;99.90;;;;;;5133350;27;20019;-70
2023/03/09 01:09:21;;;;;;;1.92;0.63;;;9.30;99.90;;;;;;5132931;27;20399;-70
2023/03/09 01:11:47;;;;;;;1.65;0.73;;;9.30;99.90;;;;;;5129789;27;20046;-70
2023/03/09 01:14:12;;;;;;;1.48;0.55;;;9.30;99.90;;;;;;5150902;27;20072;-70
2023/03/09 01:16:38;;;;;;;1.88;0.40;;;9.30;99.90;;;;;;5153340;27;20019;-70
2023/03/09 01:19:03;;;;;;;0.47;0.20;;;9.30;99.90;;;;;;5154543;27;20354;-70
2023/03/09 01:21:29;;;;;;;0.40;0.13;;;9.30;99.90;;;;;;5153579;27;20034;-69
2023/03/09 01:23:54;;;;;;;1.55;0.40;;;9.20;99.90;;;;;;5154625;27;20019;-70
2023/03/09 01:26:20;;;;;;;0.10;0.10;;;9.10;99.90;;;;;;5153156;27;20490;-70
2023/03/09 01:28:46;;;;;;;0.20;0.20;;;9.00;99.90;;;;;;5147851;27;20025;-70
2023/03/09 01:31:14;;;;;;;1.27;0.28;;;8.90;99.90;;;;;;5154089;27;20022;-70
2023/03/09 01:33:40;;;;;;;0.93;0.20;;;8.80;99.90;;;;;;5153988;27;20030;-70
2023/03/09 01:36:07;;;;;;;0.65;0.10;;;8.80;99.90;;;;;;5154130;27;20109;-71
2023/03/09 01:38:33;;;;;;;1.77;0.13;;;8.80;99.90;;;;;;5153663;27;20023;-70
2023/03/09 01:40:59;;;;;;;1.65;0.20;;;8.90;99.90;;;;;;5153923;27;20460;-70
2023/03/09 01:43:34;;;;;;;1.08;0.10;;;9.10;99.90;;;;;;5153175;27;20038;-70
2023/03/09 01:46:21;;;;;;;0.88;0.20;;;9.10;99.90;;;;;;5138702;27;20211;-71
2023/03/09 01:48:49;;;;;;;1.45;0.30;;;9.10;99.90;;;;;;5153898;27;20026;-70
2023/03/09 01:51:17;;;;;;;0.63;0.10;;;9.10;99.90;;;;;;5152516;27;20404;-71
2023/03/09 01:53:43;;;;;;;0.82;0.22;;;9.00;99.90;;;;;;5153978;27;20058;-70
2023/03/09 01:56:09;;;;;;;2.95;0.20;;;8.90;99.90;;;;;;5152973;27;20406;-70
2023/03/09 01:58:36;;;;;;;0.10;0.10;;;8.90;99.90;;;;;;5152901;27;20053;-70
2023/03/09 02:01:01;;;;;;;1.08;0.15;;;8.80;99.90;;;;;;5153048;27;20035;-70
2023/03/09 02:03:34;;;;;;;1.75;0.20;;;8.70;99.90;;;;;;5151656;27;20134;-70
2023/03/09 02:06:13;;;;;;;0.70;0.22;;;8.60;99.90;;;;;;5152729;27;20070;-70
2023/03/09 02:08:55;;;;;;;2.37;0.63;;;8.60;99.90;;;;;;5152501;27;20058;-70
2023/03/09 02:11:20;;;;;;;1.27;0.20;;;8.70;99.90;;;;;;5151993;27;20050;-70
2023/03/09 02:13:50;;;;;;;2.40;0.30;;;8.70;99.90;;;;;;5152679;27;20084;-70
2023/03/09 02:16:16;;;;;;;0.53;0.10;;;8.70;99.90;;;;;;5152109;27;20022;-69
2023/03/09 02:18:41;;;;;;;0.73;0.10;;;8.80;99.90;;;;;;5152877;27;20019;-70
2023/03/09 02:21:28;;;;;;;1.35;0.22;;;8.70;99.90;;;;;;5152118;27;20098;-69
2023/03/09 02:24:19;;;;;;;1.55;0.10;;;8.70;99.90;;;;;;5152382;27;20071;-69
2023/03/09 02:26:54;;;;;;;0.10;0.10;;;8.60;99.90;;;;;;5152907;27;20018;-70
2023/03/09 02:29:20;;;;;;;2.80;0.40;;;8.50;99.90;;;;;;5151526;27;20022;-69
2023/03/09 02:31:45;;;;;;;0.22;0.22;;;8.50;99.90;;;;;;5152939;27;20106;-69
2023/03/09 02:34:12;;;;;;;0.98;0.20;;;8.40;99.90;;;;;;5135784;27;20604;-69
2023/03/09 02:36:37;;;;;;;1.38;0.10;;;8.40;99.90;;;;;;5151871;27;20031;-69
2023/03/09 02:39:29;;;;;;;1.55;0.10;;;8.40;99.90;;;;;;5148241;27;20426;-70
2023/03/09 02:41:57;;;;;;;2.25;0.73;;;8.30;99.90;;;;;;5136336;27;20078;-70
2023/03/09 02:44:24;;;;;;;2.03;0.20;;;8.40;99.90;;;;;;5151274;27;20105;-69
2023/03/09 02:46:49;;;;;;;3.17;0.10;;;8.30;99.90;;;;;;5166910;27;20506;-70
2023/03/09 02:49:17;;;;;;;0.57;0.10;;;8.40;99.90;;;;;;5173633;27;20101;-70
2023/03/09 02:51:42;;;;;;;0.28;0.13;;;8.40;99.90;;;;;;5173559;27;20022;-70
2023/03/09 02:54:08;;;;;;;0.55;0.10;;;8.50;99.90;;;;;;5174155;27;20581;-69
2023/03/09 02:56:33;;;;;;;1.15;0.10;;;8.70;99.90;;;;;;5172917;27;20199;-69
2023/03/09 02:59:01;;;;;;;1.70;0.20;;;8.80;99.90;;;;;;5163444;27;20027;-69
2023/03/09 03:01:27;;;;;;;1.08;0.20;;;8.80;99.90;;;;;;5151936;27;20426;-69
2023/03/09 03:03:52;;;;;;;0.20;0.20;;;8.90;99.90;;;;;;5147483;27;20034;-69
2023/03/09 03:06:18;;;;;;;1.38;0.20;;;9.00;99.90;;;;;;5146136;27;20023;-69
2023/03/09 03:08:43;;;;;;;0.45;0.20;;;8.90;99.90;;;;;;5153068;27;20027;-70
2023/03/09 03:11:09;;;;;;;0.98;0.25;;;8.90;99.90;;;;;;5152405;27;20058;-71
2023/03/09 03:13:35;;;;;;;3.83;0.32;;;8.90;99.90;;;;;;5152654;27;20607;-71
2023/03/09 03:16:02;;;;;;;0.43;0.17;;;8.80;99.90;;;;;;5152735;27;20027;-70
2023/03/09 03:18:27;;;;;;;1.27;0.30;;;8.80;99.90;;;;;;5152039;27;20114;-71
2023/03/09 03:20:53;;;;;;;0.95;0.50;;;8.80;99.90;;;;;;5147457;27;20106;-70
2023/03/09 03:23:19;;;;;;;3.00;1.00;;;8.70;99.90;;;;;;5152210;27;20034;-70
2023/03/09 03:25:44;;;;;;;2.05;0.75;;;8.70;99.90;;;;;;5152227;27;20019;-70
2023/03/09 03:28:10;;;;;;;2.33;0.55;;;8.70;99.90;;;;;;5152395;27;20031;-70
2023/03/09 03:30:36;;;;;;;2.92;0.40;;;8.70;99.90;;;;;;5152417;27;20019;-70
2023/03/09 03:33:01;;;;;;;1.85;0.40;;;8.60;99.90;;;;;;5156860;27;20354;-71
2023/03/09 03:35:27;;;;;;;1.23;0.20;;;8.60;99.90;;;;;;5155573;27;20396;-70
2023/03/09 03:37:53;;;;;;;0.50;0.20;;;8.60;99.90;;;;;;5145382;27;20023;-71
2023/03/09 03:40:19;;;;;;;0.47;0.20;;;8.70;99.90;;;;;;5147552;27;20053;-71
2023/03/09 03:42:45;;;;;;;0.82;0.25;;;8.80;99.90;;;;;;5156212;27;20107;-70
2023/03/09 03:45:10;;;;;;;1.63;0.20;;;8.70;99.90;;;;;;5154740;27;20483;-71
2023/03/09 03:47:36;;;;;;;0.55;0.25;;;8.60;99.90;;;;;;5154775;27;20023;-71
2023/03/09 03:50:02;;;;;;;0.75;0.20;;;8.50;99.90;;;;;;5155606;27;20029;-70
2023/03/09 03:52:28;;;;;;;0.30;0.20;;;8.50;99.90;;;;;;5155159;27;20030;-70
2023/03/09 03:54:53;;;;;;;0.30;0.10;;;8.40;99.90;;;;;;5155460;27;20033;-70
2023/03/09 03:57:22;;;;;;;0.93;0.22;;;8.20;99.90;;;;;;5154673;27;20022;-71
2023/03/09 03:59:48;;;;;;;1.45;0.40;;;8.20;99.90;;;;;;5155112;27;20023;-69
2023/03/09 04:02:13;;;;;;;0.70;0.30;;;8.20;99.90;;;;;;5155250;27;20099;-70
2023/03/09 04:04:39;;;;;;;0.90;0.30;;;8.10;99.90;;;;;;5154518;27;20026;-70
2023/03/09 04:07:05;;;;;;;1.60;0.30;;;8.20;99.90;;;;;;5155719;27;20093;-69
2023/03/09 04:09:30;;;;;;;2.20;0.40;;;8.30;99.90;;;;;;5145470;27;20165;-69
2023/03/09 04:11:56;;;;;;;1.15;0.32;;;8.30;99.90;;;;;;5136866;27;20034;-69
2023/03/09 04:14:21;;;;;;;4.05;0.52;;;8.40;99.90;;;;;;5154070;27;20091;-70
2023/03/09 04:16:49;;;;;;;2.92;0.60;;;8.50;99.90;;;;;;5155563;27;20098;-70
2023/03/09 04:19:15;;;;;;;4.30;0.80;;;8.60;99.90;;;;;;5154643;27;20023;-69
2023/03/09 04:21:40;;;;;;;2.08;0.60;;;8.50;99.90;;;;;;5154277;27;20368;-71
2023/03/09 04:24:06;;;;;;;5.13;0.80;;;8.60;99.90;;;;;;5155436;27;20027;-69
2023/03/09 04:26:32;;;;;;;10.35;1.30;;;8.60;99.90;;;;;;5154027;27;20014;-70
2023/03/09 04:28:57;;;;;;;6.50;0.77;;;8.60;99.90;;;;;;5136416;27;20489;-70
2023/03/09 04:31:23;;;;;;;4.90;0.82;;;8.60;99.90;;;;;;5154045;27;20027;-69
2023/03/09 04:33:48;;;;;;;9.93;1.25;;;8.60;99.90;;;;;;5154490;27;20054;-70
2023/03/09 04:36:14;;;;;;;4.47;0.85;;;8.60;99.90;;;;;;5154257;27;20018;-70
2023/03/09 04:38:40;;;;;;;5.82;0.93;;;8.60;99.90;;;;;;5165517;27;20037;-68
2023/03/09 04:41:05;;;;;;;6.72;1.17;;;8.60;99.90;;;;;;5175556;27;20070;-71
2023/03/09 04:43:31;;;;;;;12.60;1.38;;;8.60;99.90;;;;;;5175531;27;20476;-71
2023/03/09 04:45:56;;;;;;;7.28;1.33;;;8.60;99.90;;;;;;5174897;27;20050;-70
2023/03/09 04:48:22;;;;;;;6.95;1.25;;;8.70;99.90;;;;;;5175503;27;20037;-70
2023/03/09 04:50:48;;;;;;;11.05;2.05;;;8.80;99.90;;;;;;5175864;27;20037;-70
2023/03/09 04:53:13;;;;;;;6.47;1.55;;;8.70;99.90;;;;;;5176213;27;20356;-70
2023/03/09 04:55:39;;;;;;;5.47;1.40;;;8.60;99.90;;;;;;5141205;27;20049;-70
2023/03/09 04:58:04;;;;;;;5.55;1.40;;;8.60;99.90;;;;;;5134501;27;20030;-70
2023/03/09 05:00:32;;;;;;;5.57;1.50;;;8.60;99.90;;;;;;5133083;27;20084;-70
2023/03/09 05:02:58;;;;;;;8.80;1.67;;;8.70;99.90;;;;;;5134015;27;20046;-70
2023/03/09 05:05:24;;;;;;;11.50;3.00;;;8.70;99.90;;;;;;5153302;27;20034;-70
2023/03/09 05:07:50;;;;;;;6.68;1.52;;;8.80;99.90;;;;;;5154768;27;20035;-70
2023/03/09 05:10:15;;;;;;;8.50;1.58;;;8.80;99.90;;;;;;5148181;27;20034;-69
2023/03/09 05:12:41;;;;;;;14.77;1.77;;;8.80;99.90;;;;;;5146100;27;20042;-70
2023/03/09 05:15:08;;;;;;;6.03;1.30;;;8.80;99.90;;;;;;5154148;27;20436;-70
2023/03/09 05:17:34;;;;;;;8.25;1.83;;;8.90;99.90;;;;;;5153139;27;20019;-70
2023/03/09 05:20:00;;;;;;;9.60;1.85;;;8.90;99.90;;;;;;5153911;27;20364;-70
2023/03/09 05:22:26;;;;;;;8.75;1.40;;;8.80;99.90;;;;;;5152746;27;20035;-70
2023/03/09 05:24:51;;;;;;;10.45;2.00;;;8.70;99.90;;;;;;5152883;27;20380;-70
2023/03/09 05:27:17;;;;;;;7.28;1.67;;;8.80;99.90;;;;;;5153423;27;20023;-70
2023/03/09 05:29:42;;;;;;;11.57;1.80;;;8.70;99.90;;;;;;5151063;27;20469;-71
2023/03/09 05:32:08;;;;;;;13.43;2.13;;;8.60;99.90;;;;;;5153924;27;20068;-69
2023/03/09 05:34:34;;;;;;;11.30;1.80;;;8.60;99.90;;;;;;5152122;27;20019;-69
2023/03/09 05:37:00;;;;;;;7.07;1.60;;;8.70;99.90;;;;;;5153979;27;20118;-70
2023/03/09 05:39:26;;;;;;;12.00;1.48;;;8.60;99.90;;;;;;5152753;27;20037;-70
2023/03/09 05:41:51;;;;;;;10.38;1.45;;;8.60;99.90;;;;;;5153975;27;20106;-70
2023/03/09 05:44:17;;;;;;;13.02;1.75;;;8.70;99.90;;;;;;5153031;27;20057;-69
2023/03/09 05:46:42;;;;;;;8.63;1.63;;;8.80;99.90;;;;;;5152816;27;20095;-69
2023/03/09 05:49:09;;;;;;;10.18;1.95;;;8.90;99.90;;;;;;5153635;27;20026;-70
2023/03/09 05:51:35;;;;;;;13.23;2.65;;;8.80;99.90;;;;;;5151348;27;20011;-71
2023/03/09 05:54:00;;;;;;;14.45;2.80;;;8.70;99.90;;;;;;5153271;27;20010;-69
2023/03/09 05:56:26;;;;;;;9.00;1.50;;;8.60;99.90;;;;;;5152288;27;20350;-71
2023/03/09 05:58:52;;;;;;;7.80;1.60;;;8.70;99.90;;;;;;5153373;27;20091;-70
2023/03/09 06:01:25;;;;;;;5.80;1.40;;;8.80;99.90;;;;;;5151590;27;20031;-69
2023/03/09 06:03:54;;;;;;;13.55;1.77;;;8.70;99.90;;;;;;5152765;27;20396;-70
2023/03/09 06:06:20;;;;;;;7.80;1.73;;;8.70;99.90;;;;;;5133559;27;20019;-71
2023/03/09 06:08:47;;;;;;;9.52;2.15;;;8.80;99.90;;;;;;5153039;27;20034;-73
2023/03/09 06:11:13;;;;;;;10.52;2.63;;;8.60;99.90;;;;;;5150366;27;20019;-75
2023/03/09 06:13:38;;;;;;;7.47;1.95;;;8.50;99.90;;;;;;5150796;27;20110;-71
2023/03/09 06:16:06;;;;;;;10.77;2.25;;;8.40;99.90;;;;;;5153170;27;20050;-72
2023/03/09 06:18:32;;;;;;;8.00;1.67;;;8.30;99.90;;;;;;5153059;27;20105;-72
2023/03/09 06:21:04;;;;;;;11.43;2.08;;;8.30;99.90;;;;;;5152958;27;20111;-72
2023/03/09 06:23:31;;;;;;;8.90;1.95;;;8.20;99.90;;;;;;5152596;27;20043;-72
2023/03/09 06:25:57;;;;;;;7.50;1.90;;;8.20;99.90;;;;;;5146587;27;20153;-71
2023/03/09 06:28:23;;;;;;;9.25;1.80;;;8.20;99.90;;;;;;5146712;27;20026;-70
2023/03/09 06:30:49;;;;;;;7.15;1.48;;;8.20;99.90;;;;;;5142341;27;20034;-68
2023/03/09 06:33:14;;;;;;;6.50;1.83;;;8.30;99.90;;;;;;5148126;27;20026;-70
2023/03/09 06:35:41;;;;;;;11.48;2.20;;;8.30;99.90;;;;;;5141712;27;20110;-69
2023/03/09 06:38:06;;;;;;;11.68;1.80;;;8.40;99.90;;;;;;5149157;27;20022;-69
2023/03/09 06:40:32;;;;;;;8.05;1.70;;;8.60;99.90;;;;;;5146085;27;20446;-70
2023/03/09 06:43:00;;;;;;;9.15;1.90;;;8.70;99.90;;;;;;5151772;27;20042;-69
2023/03/09 06:45:26;;;;;;;7.25;1.55;;;8.90;99.90;;;;;;5148800;27;20039;-70
2023/03/09 06:47:56;;;;;;;6.78;1.70;;;9.10;99.90;;;;;;5151823;27;20041;-69
2023/03/09 06:50:22;;;;;;;;;;;9.20;99.90;;;;;;5134516;27;20019;-70
2023/03/09 06:52:48;;;;;;;9.13;1.50;;;9.30;99.90;;;;;;5139308;27;20376;-72
2023/03/09 06:55:16;;;;;;;9.32;1.70;;;9.40;99.90;;;;;;5150109;27;20019;-69
2023/03/09 06:57:43;;;;;;;10.77;1.48;;;9.50;99.90;;;;;;5134580;27;20146;-68
2023/03/09 07:00:11;;;;;;;9.40;1.60;;;9.50;99.90;;;;;;5141156;27;20029;-69
2023/03/09 07:02:37;;;;;;;8.35;1.73;;;9.50;99.90;;;;;;5158200;27;20038;-69
2023/03/09 07:05:05;;;;;;;5.97;2.05;;;9.50;99.90;;;;;;5162212;27;20109;-69
2023/03/09 07:07:30;;;;;;;8.88;1.77;;;9.50;99.90;;;;;;5147983;27;20026;-69
2023/03/09 07:09:56;;;;;;;7.28;2.38;;;9.60;99.90;;;;;;5156576;27;20083;-69
2023/03/09 07:12:22;;;;;;;10.60;1.85;;;9.70;99.90;;;;;;5155023;27;20022;-69
2023/03/09 07:14:47;;;;;;;8.50;1.38;;;9.70;99.90;;;;;;5155417;27;20495;-69
2023/03/09 07:17:13;;;;;;;9.13;2.00;;;9.90;99.90;;;;;;5155381;27;20015;-69
2023/03/09 07:19:40;;;;;;;6.15;1.52;;;10.00;99.90;;;;;;5155220;27;20035;-70
2023/03/09 07:22:07;;;;;;;12.55;1.70;;;10.20;99.90;;;;;;5155994;27;20107;-69
2023/03/09 07:24:36;;;;;;;7.03;1.42;;;10.30;99.90;;;;;;5154632;27;20023;-70
2023/03/09 07:27:03;;;;;;;5.37;1.47;;;10.40;99.90;;;;;;5153403;27;20033;-70
2023/03/09 07:29:29;;;;;;;9.70;1.45;;;10.60;99.90;;;;;;5154677;27;20022;-69
2023/03/09 07:31:54;;;;;;;10.35;1.67;;;10.70;99.90;;;;;;5156236;27;20475;-70
2023/03/09 07:34:20;;;;;;;10.13;1.58;;;10.70;99.90;;;;;;5154732;27;20098;-70
2023/03/09 07:36:46;;;;;;;8.77;1.60;;;10.60;99.90;;;;;;5155749;27;20053;-70
2023/03/09 07:39:12;;;;;;;6.72;1.30;;;10.50;99.90;;;;;;5155763;27;20385;-69
2023/03/09 07:41:37;;;;;;;11.55;1.80;;;10.50;99.90;;;;;;5154913;27;20026;-70
2023/03/09 07:44:03;;;;;;;7.00;0.95;;;10.50;99.90;;;;;;5155789;27;20034;-71
2023/03/09 07:46:29;;;;;;;8.18;1.70;;;10.60;99.90;;;;;;5154283;27;20400;-70
2023/03/09 07:48:54;;;;;;;9.10;1.65;;;10.70;99.90;;;;;;5156296;27;20058;-70
2023/03/09 07:51:21;;;;;;;9.35;1.73;;;10.80;99.90;;;;;;5153949;27;20461;-70
2023/03/09 07:53:47;;;;;;;11.23;1.60;;;10.90;99.90;;;;;;5155732;27;20499;-70
2023/03/09 07:56:12;;;;;;;5.07;1.08;;;11.00;99.90;;;;;;5155105;27;20050;-70
2023/03/09 07:58:39;;;;;;;7.22;1.30;;;11.10;99.90;;;;;;5155201;27;20027;-70
2023/03/09 08:01:07;;;;;;;7.47;1.40;;;11.20;99.90;;;;;;5155289;27;20038;-70
2023/03/09 08:03:34;;;;;;;8.80;1.35;;;11.30;99.90;;;;;;5153731;27;20487;-70
2023/03/09 08:06:05;;;;;;;12.27;2.30;;;11.30;99.90;;;;;;5155557;27;20070;-71
2023/03/09 08:08:31;;;;;;;6.45;1.85;;;11.50;99.90;;;;;;5154771;27;20346;-70
2023/03/09 08:10:57;;;;;;;7.82;1.20;;;11.60;99.90;;;;;;5155028;27;20075;-71
2023/03/09 08:13:24;;;;;;;6.25;1.58;;;11.70;99.90;;;;;;5154479;27;20082;-70
2023/03/09 08:15:51;;;;;;;4.13;1.20;;;11.60;99.90;;;;;;5154635;27;20042;-71
2023/03/09 08:18:17;;;;;;;8.07;1.50;;;11.50;99.90;;;;;;5155034;27;20023;-70
2023/03/09 08:20:43;;;;;;;8.40;1.27;;;11.50;99.90;;;;;;5154499;27;20496;-72
2023/03/09 08:23:09;;;;;;;9.25;1.33;;;11.60;99.90;;;;;;5155348;27;20030;-71
2023/03/09 08:25:35;;;;;;;12.00;1.55;;;11.70;99.90;;;;;;5156707;27;20025;-70
2023/03/09 08:28:01;;;;;;;4.68;1.10;;;11.80;99.90;;;;;;5155756;27;20488;-71
2023/03/09 08:30:27;;;;;;;6.60;1.00;;;11.90;99.90;;;;;;5153606;27;20026;-71
2023/03/09 08:32:54;;;;;;;9.10;1.38;;;12.00;99.90;;;;;;5155059;27;20365;-71
2023/03/09 08:35:22;;;;;;;5.65;0.90;;;12.00;99.90;;;;;;5153998;27;20018;-71
2023/03/09 08:37:48;;;;;;;7.45;1.10;;;12.10;99.90;;;;;;5138506;27;20179;-73
2023/03/09 08:40:15;;;;;;;4.05;0.90;;;12.10;99.90;;;;;;5154422;27;20019;-72
2023/03/09 08:42:41;;;;;;;5.60;0.95;;;12.10;99.90;;;;;;5154487;27;20089;-71
2023/03/09 08:45:08;;;;;;;6.65;1.33;;;12.20;99.90;;;;;;5154153;27;20043;-71
2023/03/09 08:47:34;;;;;;;10.23;1.30;;;12.30;99.90;;;;;;5153637;27;20187;-70
2023/03/09 08:50:00;;;;;;;6.75;1.45;;;12.30;99.90;;;;;;5154798;27;20022;-70
2023/03/09 08:52:26;;;;;;;6.55;1.48;;;12.30;99.90;;;;;;5153893;27;20026;-70
2023/03/09 08:54:51;;;;;;;3.60;1.10;;;12.40;99.90;;;;;;5154337;27;20022;-70
2023/03/09 08:57:17;;;;;;;6.60;1.10;;;12.40;99.90;;;;;;5153978;27;20397;-70
2023/03/09 08:59:43;;;;;;;5.35;1.13;;;12.50;99.90;;;;;;5153858;27;20023;-70
2023/03/09 09:02:14;;;;;;;3.13;0.90;;;12.50;99.90;;;;;;5154390;27;20109;-70
2023/03/09 09:04:43;;;;;;;;;;;12.70;99.90;;;;;;5171433;27;20033;-70
2023/03/09 09:07:08;;;;;;;5.53;1.13;;;12.90;99.90;;;;;;5153930;27;20364;-71
2023/03/09 09:09:34;;;;;;;3.80;0.80;;;13.30;99.90;;;;;;5151934;27;20046;-71
2023/03/09 09:12:00;;;;;;;8.90;1.60;;;13.70;99.90;;;;;;5149840;27;20030;-71
2023/03/09 09:14:26;;;;;;;3.25;0.98;;;13.40;99.90;;;;;;5145404;27;20500;-70
2023/03/09 09:16:51;;;;;;;3.95;1.13;;;13.00;99.90;;;;;;5153441;27;20023;-71
2023/03/09 09:19:18;;;;;;;5.68;1.15;;;12.70;99.90;;;;;;5153492;27;20046;-71
2023/03/09 09:21:43;;;;;;;3.40;1.00;;;12.30;99.90;;;;;;5153308;27;20015;-71
2023/03/09 09:24:09;;;;;;;3.78;1.08;;;11.80;99.90;;;;;;5154229;27;20110;-71
2023/03/09 09:26:35;;;;;;;5.80;0.85;;;11.40;99.90;;;;;;5151364;27;20567;-71
2023/03/09 09:29:01;;;;;;;6.57;1.00;;;11.00;99.90;;;;;;5153606;27;20106;-71
2023/03/09 09:31:27;;;;;;;5.18;1.10;;;10.70;99.90;;;;;;5152613;27;20076;-71
2023/03/09 09:33:53;;;;;;;6.25;1.15;;;10.40;99.90;;;;;;5154266;27;20036;-71
2023/03/09 09:36:19;;;;;;;4.85;1.02;;;10.30;99.90;;;;;;5152250;27;20030;-71
2023/03/09 09:38:46;;;;;;;5.90;1.30;;;10.50;99.90;;;;;;5153572;27;20026;-71
2023/03/09 09:41:42;;;;;;;2.90;1.10;;;10.70;99.90;;;;;;5146787;27;20030;-72
2023/03/09 09:44:19;;;;;;;3.63;1.55;;;11.10;99.90;;;;;;5139854;27;20041;-71
2023/03/09 09:46:46;;;;;;;6.55;1.15;;;11.40;99.90;;;;;;5153745;27;20446;-71
2023/03/09 09:49:22;;;;;;;5.10;1.00;;;11.60;99.90;;;;;;5153847;27;20050;-71
2023/03/09 09:51:56;;;;;;;3.65;1.00;;;11.80;99.90;;;;;;5153958;27;20027;-71
2023/03/09 09:54:59;;;;;;;2.83;0.95;;;11.90;99.90;;;;;;5152466;27;20097;-70
2023/03/09 09:57:41;;;;;;;5.22;1.00;;;12.10;99.90;;;;;;5150061;27;20495;-70
2023/03/09 10:00:19;;;;;;;3.78;1.27;;;12.10;99.90;;;;;;5153246;27;20443;-70
2023/03/09 10:03:21;;;;;;;4.32;0.95;;;12.10;99.90;;;;;;5153343;27;20491;-71
2023/03/09 10:05:53;;;;;;;6.82;1.20;;;12.20;99.90;;;;;;5148116;27;20441;-71
2023/03/09 10:08:48;;;;;;;2.10;0.95;;;12.30;99.90;;;;;;5151617;27;20022;-71
2023/03/09 10:11:47;;;;;;;2.78;0.60;;;12.40;99.90;;;;;;5134982;27;20434;-70
2023/03/09 10:14:18;;;;;;;3.10;0.75;;;12.50;99.90;;;;;;5142350;27;20058;-71
2023/03/09 10:17:02;;;;;;;2.17;0.70;;;12.60;99.90;;;;;;5151660;27;20061;-71
2023/03/09 10:19:40;;;;;;;4.10;1.30;;;12.60;99.90;;;;;;5151740;27;20027;-70
2023/03/09 10:22:14;;;;;;;5.13;0.80;;;12.60;99.90;;;;;;5149163;27;20445;-71
2023/03/09 10:24:41;;;;;;;2.83;1.00;;;12.50;99.90;;;;;;5152044;27;20026;-71
2023/03/09 10:27:31;;;;;;;5.80;1.10;;;12.60;99.90;;;;;;5149610;27;20034;-71
2023/03/09 10:30:06;;;;;;;3.80;1.30;;;12.60;99.90;;;;;;5152251;27;20029;-71
2023/03/09 10:33:03;;;;;;;3.17;0.75;;;12.70;99.90;;;;;;5148813;27;20140;-71
2023/03/09 10:35:41;;;;;;;6.85;1.05;;;12.80;99.90;;;;;;5150208;27;20027;-71
2023/03/09 10:38:13;;;;;;;2.25;0.70;;;13.20;99.90;;;;;;5152647;27;20306;-72
2023/03/09 10:40:48;;;;;;;3.67;0.60;;;13.20;99.90;;;;;;5148127;27;20027;-71
2023/03/09 10:43:35;;;;;;;4.20;0.82;;;13.20;99.90;;;;;;5152974;27;20026;-71
2023/03/09 10:46:18;;;;;;;2.78;0.68;;;13.10;99.90;;;;;;5136111;27;20043;-70
2023/03/09 10:48:45;;;;;;;2.67;0.85;;;13.20;99.90;;;;;;5124772;27;20024;-72
2023/03/09 10:51:36;;;;;;;7.05;1.13;;;13.30;99.90;;;;;;5146954;27;20105;-72
2023/03/09 10:54:38;;;;;;;3.58;1.05;;;13.30;99.90;;;;;;5139225;27;20091;-72
2023/03/09 10:57:25;;;;;;;4.68;0.85;;;13.30;99.90;;;;;;5083342;28;20096;-71
2023/03/09 11:00:17;;;;;;;6.28;1.20;;;13.20;99.90;;;;;;5135733;27;20035;-72
2023/03/09 11:02:52;;;;;;;2.92;1.00;;;13.00;99.90;;;;;;5139102;27;20542;-72
2023/03/09 11:05:24;;;;;;;7.55;1.00;;;13.00;99.90;;;;;;5150051;27;20087;-71
2023/03/09 11:07:58;;;;;;;5.90;1.50;;;13.10;99.90;;;;;;5135863;27;20374;-72
2023/03/09 11:10:28;;;;;;;4.68;0.82;;;13.20;99.90;;;;;;5123978;27;20023;-72
2023/03/09 11:12:55;;;;;;;8.75;1.55;;;13.30;99.90;;;;;;5133677;27;20039;-71
2023/03/09 11:15:33;;;;;;;8.98;2.20;;;13.50;99.90;;;;;;5150954;27;20097;-71
2023/03/09 11:18:00;;;;;;;4.68;1.10;;;13.70;99.90;;;;;;5152932;27;20047;-72
2023/03/09 11:20:37;;;;;;;7.03;1.17;;;13.90;99.90;;;;;;5151248;27;20023;-71
2023/03/09 11:23:25;;;;;;;6.60;1.13;;;14.00;99.90;;;;;;5152288;27;20034;-72
2023/03/09 11:26:15;;;;;;;5.70;1.35;;;14.20;99.90;;;;;;5151873;27;20023;-72
2023/03/09 11:29:14;;;;;;;7.85;1.60;;;14.40;99.90;;;;;;5133458;27;20027;-71
2023/03/09 11:31:42;;;;;;;3.10;1.20;;;14.60;99.90;;;;;;5151330;27;20109;-71
2023/03/09 11:34:39;;;;;;;5.15;1.13;;;14.70;99.90;;;;;;5152438;27;20062;-71
2023/03/09 11:37:13;;;;;;;7.10;1.30;;;14.50;99.90;;;;;;5147121;27;20163;-71
2023/03/09 11:39:55;;;;;;;6.82;1.58;;;14.40;99.90;;;;;;5150830;27;20125;-71
2023/03/09 11:42:50;;;;;;;3.38;1.23;;;14.40;99.90;;;;;;5139601;27;20023;-71
2023/03/09 11:45:25;;;;;;;10.68;1.50;;;14.60;99.90;;;;;;5150850;27;20039;-71
2023/03/09 11:47:58;;;;;;;7.95;1.20;;;14.70;99.90;;;;;;5152434;27;20094;-72
2023/03/09 11:50:47;;;;;;;2.60;1.05;;;15.00;99.90;;;;;;5152666;27;20064;-71
2023/03/09 11:53:28;;;;;;;8.32;1.90;;;15.00;99.90;;;;;;5155905;27;20026;-71
2023/03/09 11:55:59;;;;;;;8.18;1.20;;;14.90;99.90;;;;;;5154343;27;20505;-71
2023/03/09 11:58:37;;;;;;;3.13;1.33;;;14.80;99.90;;;;;;5155300;27;20026;-72
2023/03/09 12:01:28;;;;;;;5.65;1.00;;;14.70;99.90;;;;;;5155318;27;20022;-71
2023/03/09 12:04:05;;;;;;;6.13;1.73;;;14.70;99.90;;;;;;5138743;27;20042;-71
2023/03/09 12:06:52;;;;;;;5.47;1.23;;;14.90;99.90;;;;;;5154274;27;20023;-71
2023/03/09 12:09:44;;;;;;;4.95;1.20;;;14.80;99.90;;;;;;5154798;27;20039;-71
2023/03/09 12:12:41;;;;;;;4.78;1.17;;;14.60;99.90;;;;;;5155575;27;20025;-70
2023/03/09 12:15:37;;;;;;;6.10;1.17;;;14.30;99.90;;;;;;5154927;27;20019;-70
2023/03/09 12:18:07;;;;;;;4.75;1.10;;;14.10;99.90;;;;;;5155794;27;20033;-70
2023/03/09 12:20:32;;;;;;;3.97;0.98;;;14.10;99.90;;;;;;5154887;27;20030;-70
2023/03/09 12:22:58;;;;;;;4.88;1.20;;;14.00;99.90;;;;;;5155293;27;20038;-71
2023/03/09 12:25:25;;;;;;;3.28;0.88;;;13.90;99.90;;;;;;5154096;27;20034;-71
2023/03/09 12:27:59;;;;;;;4.93;1.05;;;14.00;99.90;;;;;;5154815;27;20114;-71
2023/03/09 12:30:30;;;;;;;2.78;0.95;;;14.20;99.90;;;;;;5154006;27;20019;-70
2023/03/09 12:33:00;;;;;;;8.70;1.55;;;14.70;99.90;;;;;;5154749;27;20027;-71
2023/03/09 12:35:25;;;;;;;8.27;1.27;;;15.10;99.90;;;;;;5153882;27;20045;-71
2023/03/09 12:37:59;;;;;;;6.25;1.33;;;15.50;99.90;;;;;;5155324;27;20461;-71
2023/03/09 12:40:25;;;;;;;3.53;1.05;;;15.50;99.90;;;;;;5153879;27;20024;-72
2023/03/09 12:42:54;;;;;;;3.47;1.25;;;15.40;99.90;;;;;;5154654;27;20038;-72
2023/03/09 12:45:22;;;;;;;4.28;1.20;;;15.30;99.90;;;;;;5152610;27;20507;-70
2023/03/09 12:48:04;;;;;;;3.15;0.90;;;15.50;99.90;;;;;;5138363;27;20109;-72
2023/03/09 12:50:53;;;;;;;6.53;1.40;;;15.80;99.90;;;;;;5153928;27;20029;-72
2023/03/09 12:53:25;;;;;;;8.13;1.52;;;16.10;99.90;;;;;;5154341;27;20109;-71
2023/03/09 12:55:59;;;;;;;3.80;1.17;;;16.20;99.90;;;;;;5137639;27;20046;-70
2023/03/09 12:58:25;;;;;;;6.85;1.20;;;16.10;99.90;;;;;;5153774;27;20026;-72
2023/03/09 13:01:03;;;;;;;4.82;1.35;;;15.90;99.90;;;;;;5154288;27;20023;-70
2023/03/09 13:04:06;;;;;;;6.75;1.20;;;15.70;99.90;;;;;;5151041;27;20039;-71
2023/03/09 13:06:56;;;;;;;8.35;1.45;;;15.50;99.90;;;;;;5153544;27;20065;-71